Time,TemperatureF,DewpointF,PressureIn,WindDirection,WindDirectionDegrees,WindSpeedMPH,WindSpeedGustMPH,Humidity,HourlyPrecipIn,Conditions,Clouds,dailyrainin,SoftwareType,DateUTC
2013-01-04 00:05:00,47.5,47.0,30.24,SE,135,0.0,-999.0,98,-99.99,,,0.00,Acu-Link.com,2013-01-04 08:05:00,
2013-01-04 00:21:00,47.3,46.8,30.23,East,90,2.7,-999.0,98,-99.99,,,0.00,Acu-Link.com,2013-01-04 08:21:00,
2013-01-04 00:36:00,47.1,46.6,30.23,NE,45,0.0,-999.0,98,-99.99,,,0.00,Acu-Link.com,2013-01-04 08:36:00,
2013-01-04 00:51:00,47.1,46.6,30.23,East,90,0.0,-999.0,98,-99.99,,,0.00,Acu-Link.com,2013-01-04 08:51:00,
2013-01-04 01:07:00,46.9,46.4,30.23,ESE,112,0.0,-999.0,98,-99.99,,,0.00,Acu-Link.com,2013-01-04 09:07:00,
2013-01-04 01:22:00,46.9,46.4,30.25,ESE,112,0.0,-999.0,98,-99.99,,,0.00,Acu-Link.com,2013-01-04 09:22:00,
2013-01-04 01:38:00,46.8,46.3,30.25,East,90,0.0,-999.0,98,-99.99,,,0.00,Acu-Link.com,2013-01-04 09:38:00,
2013-01-04 01:53:00,46.8,46.3,30.24,NNE,22,0.0,-999.0,98,-99.99,,,0.00,Acu-Link.com,2013-01-04 09:53:00,
2013-01-04 02:08:00,46.8,46.3,30.24,North,0,0.0,-999.0,98,-99.99,,,0.00,Acu-Link.com,2013-01-04 10:08:00,
2013-01-04 02:23:00,46.8,46.3,30.25,ENE,67,0.0,-999.0,98,-99.99,,,0.00,Acu-Link.com,2013-01-04 10:23:00,
2013-01-04 02:39:00,46.6,46.1,30.25,ESE,112,0.0,-999.0,98,-99.99,,,0.01,Acu-Link.com,2013-01-04 10:39:00,
2013-01-04 02:54:00,46.6,46.1,30.25,ESE,112,0.0,-999.0,98,-99.99,,,0.01,Acu-Link.com,2013-01-04 10:54:00,
2013-01-04 03:09:00,46.6,46.1,30.25,ENE,67,0.0,-999.0,98,-99.99,,,0.01,Acu-Link.com,2013-01-04 11:09:00,
2013-01-04 03:25:00,46.6,46.1,30.24,East,90,0.0,-999.0,98,-99.99,,,0.01,Acu-Link.com,2013-01-04 11:25:00,
2013-01-04 03:40:00,46.4,45.9,30.24,ESE,112,0.0,-999.0,98,-99.99,,,0.01,Acu-Link.com,2013-01-04 11:40:00,
2013-01-04 03:55:00,46.4,45.9,30.24,East,90,0.0,-999.0,98,-99.99,,,0.01,Acu-Link.com,2013-01-04 11:55:00,
2013-01-04 04:26:00,45.9,45.4,30.23,ESE,112,0.0,-999.0,98,-99.99,,,0.01,Acu-Link.com,2013-01-04 12:26:00,
2013-01-04 04:41:00,45.5,45.0,30.24,NNW,337,0.0,-999.0,98,-99.99,,,0.01,Acu-Link.com,2013-01-04 12:41:00,
2013-01-04 04:56:00,45.3,44.8,30.23,WSW,247,0.0,-999.0,98,-99.99,,,0.01,Acu-Link.com,2013-01-04 12:56:00,
2013-01-04 05:12:00,45.3,44.8,30.23,ESE,112,0.0,-999.0,98,-99.99,,,0.01,Acu-Link.com,2013-01-04 13:12:00,
2013-01-04 05:27:00,45.1,44.6,30.23,East,90,0.0,-999.0,98,-99.99,,,0.01,Acu-Link.com,2013-01-04 13:27:00,
2013-01-04 05:42:00,45.1,44.6,30.23,NE,45,0.0,-999.0,98,-99.99,,,0.01,Acu-Link.com,2013-01-04 13:42:00,
2013-01-04 05:58:00,45.1,44.6,30.23,South,180,0.0,-999.0,98,-99.99,,,0.01,Acu-Link.com,2013-01-04 13:58:00,
2013-01-04 06:13:00,45.0,44.5,30.22,East,90,0.0,-999.0,98,-99.99,,,0.01,Acu-Link.com,2013-01-04 14:13:00,
2013-01-04 06:28:00,45.0,44.5,30.23,South,180,0.0,-999.0,98,-99.99,,,0.01,Acu-Link.com,2013-01-04 14:28:00,
2013-01-04 06:44:00,45.0,44.5,30.22,East,90,0.0,-999.0,98,-99.99,,,0.01,Acu-Link.com,2013-01-04 14:44:00,
2013-01-04 06:59:00,45.0,44.5,30.22,NNW,337,0.0,-999.0,98,-99.99,,,0.01,Acu-Link.com,2013-01-04 14:59:00,
2013-01-04 07:14:00,45.0,44.5,30.22,South,180,0.0,-999.0,98,-99.99,,,0.01,Acu-Link.com,2013-01-04 15:14:00,
2013-01-04 07:29:00,44.8,44.3,30.22,ESE,112,0.0,-999.0,98,-99.99,,,0.01,Acu-Link.com,2013-01-04 15:29:00,
2013-01-04 07:45:00,44.6,44.1,30.23,East,90,0.0,-999.0,98,-99.99,,,0.01,Acu-Link.com,2013-01-04 15:45:00,
2013-01-04 08:00:00,44.4,43.9,30.22,East,90,0.0,-999.0,98,-99.99,,,0.01,Acu-Link.com,2013-01-04 16:00:00,
2013-01-04 08:15:00,44.1,43.6,30.23,ESE,112,0.0,-999.0,98,-99.99,,,0.01,Acu-Link.com,2013-01-04 16:15:00,
2013-01-04 08:31:00,44.1,43.6,30.23,ESE,112,0.0,-999.0,98,-99.99,,,0.01,Acu-Link.com,2013-01-04 16:31:00,
2013-01-04 08:46:00,44.4,43.9,30.23,ENE,67,0.0,-999.0,98,-99.99,,,0.01,Acu-Link.com,2013-01-04 16:46:00,
2013-01-04 09:01:00,45.5,45.0,30.23,WNW,292,0.0,-999.0,98,-99.99,,,0.01,Acu-Link.com,2013-01-04 17:01:00,
2013-01-04 09:17:00,46.2,45.7,30.24,WSW,247,0.0,-999.0,98,-99.99,,,0.01,Acu-Link.com,2013-01-04 17:17:00,
2013-01-04 09:32:00,46.8,46.3,30.24,ENE,67,0.0,-999.0,98,-99.99,,,0.01,Acu-Link.com,2013-01-04 17:32:00,
2013-01-04 09:47:00,47.7,47.2,30.24,SSE,157,0.0,-999.0,98,-99.99,,,0.01,Acu-Link.com,2013-01-04 17:47:00,
2013-01-04 10:02:00,47.8,47.3,30.25,SW,225,3.2,-999.0,98,-99.99,,,0.01,Acu-Link.com,2013-01-04 18:02:00,
2013-01-04 10:18:00,48.2,47.7,30.26,NE,45,0.0,-999.0,98,-99.99,,,0.01,Acu-Link.com,2013-01-04 18:18:00,
2013-01-04 10:33:00,47.3,46.8,30.25,ESE,112,0.0,-999.0,98,-99.99,,,0.01,Acu-Link.com,2013-01-04 18:33:00,
2013-01-04 10:48:00,47.7,47.2,30.24,South,180,0.0,-999.0,98,-99.99,,,0.01,Acu-Link.com,2013-01-04 18:48:00,
2013-01-04 11:04:00,49.1,48.6,30.23,East,90,1.7,-999.0,98,-99.99,,,0.01,Acu-Link.com,2013-01-04 19:04:00,
2013-01-04 11:19:00,48.9,48.4,30.23,NNE,22,2.7,-999.0,98,-99.99,,,0.01,Acu-Link.com,2013-01-04 19:19:00,
2013-01-04 11:34:00,49.3,48.8,30.21,ENE,67,2.7,-999.0,98,-99.99,,,0.01,Acu-Link.com,2013-01-04 19:34:00,
2013-01-04 11:50:00,49.1,48.6,30.21,WNW,292,1.7,-999.0,98,-99.99,,,0.01,Acu-Link.com,2013-01-04 19:50:00,
2013-01-04 12:05:00,49.1,48.6,30.20,SW,225,0.0,-999.0,98,-99.99,,,0.01,Acu-Link.com,2013-01-04 20:05:00,
2013-01-04 12:20:00,49.1,48.6,30.19,SW,225,0.0,-999.0,98,-99.99,,,0.01,Acu-Link.com,2013-01-04 20:20:00,
2013-01-04 12:35:00,49.8,49.3,30.19,WSW,247,2.2,-999.0,98,-99.99,,,0.01,Acu-Link.com,2013-01-04 20:35:00,
2013-01-04 12:51:00,50.9,50.4,30.18,West,270,2.2,-999.0,98,-99.99,,,0.01,Acu-Link.com,2013-01-04 20:51:00,
2013-01-04 13:06:00,51.8,51.3,30.17,SW,225,3.2,-999.0,98,-99.99,,,0.01,Acu-Link.com,2013-01-04 21:06:00,
2013-01-04 13:21:00,52.5,52.0,30.16,SW,225,2.2,-999.0,98,-99.99,,,0.01,Acu-Link.com,2013-01-04 21:21:00,
2013-01-04 13:37:00,53.2,52.6,30.15,SW,225,2.2,-999.0,98,-99.99,,,0.01,Acu-Link.com,2013-01-04 21:37:00,
2013-01-04 13:52:00,54.5,53.9,30.14,West,270,3.2,-999.0,98,-99.99,,,0.01,Acu-Link.com,2013-01-04 21:52:00,
2013-01-04 14:07:00,53.2,52.6,30.14,SE,135,0.0,-999.0,98,-99.99,,,0.01,Acu-Link.com,2013-01-04 22:07:00,
2013-01-04 14:23:00,54.1,53.5,30.12,SW,225,2.7,-999.0,98,-99.99,,,0.01,Acu-Link.com,2013-01-04 22:23:00,
2013-01-04 14:38:00,55.2,54.6,30.12,ESE,112,0.0,-999.0,98,-99.99,,,0.01,Acu-Link.com,2013-01-04 22:38:00,
2013-01-04 14:53:00,54.1,53.5,30.12,SSW,202,0.0,-999.0,98,-99.99,,,0.01,Acu-Link.com,2013-01-04 22:53:00,
2013-01-04 15:09:00,54.3,53.7,30.12,ESE,112,0.0,-999.0,98,-99.99,,,0.01,Acu-Link.com,2013-01-04 23:09:00,
2013-01-04 15:24:00,54.1,53.5,30.12,WSW,247,2.7,-999.0,98,-99.99,,,0.01,Acu-Link.com,2013-01-04 23:24:00,
2013-01-04 15:39:00,55.6,55.0,30.12,SSW,202,0.0,-999.0,98,-99.99,,,0.01,Acu-Link.com,2013-01-04 23:39:00,
2013-01-04 15:55:00,55.9,55.3,30.12,WNW,292,0.0,-999.0,98,-99.99,,,0.01,Acu-Link.com,2013-01-04 23:55:00,
2013-01-04 16:10:00,55.6,55.0,30.12,NW,315,2.2,-999.0,98,-99.99,,,0.01,Acu-Link.com,2013-01-05 00:10:00,
2013-01-04 16:25:00,54.1,53.5,30.13,NNW,337,1.7,-999.0,98,-99.99,,,0.01,Acu-Link.com,2013-01-05 00:25:00,
2013-01-04 16:41:00,52.5,52.0,30.12,West,270,2.2,-999.0,98,-99.99,,,0.01,Acu-Link.com,2013-01-05 00:41:00,
2013-01-04 16:56:00,51.3,50.8,30.13,SW,225,0.0,-999.0,98,-99.99,,,0.01,Acu-Link.com,2013-01-05 00:56:00,
2013-01-04 17:11:00,50.5,50.0,30.12,WSW,247,1.7,-999.0,98,-99.99,,,0.01,Acu-Link.com,2013-01-05 01:11:00,
2013-01-04 17:26:00,50.2,49.7,30.12,NNW,337,0.0,-999.0,98,-99.99,,,0.01,Acu-Link.com,2013-01-05 01:26:00,
2013-01-04 17:42:00,49.6,49.1,30.12,NNE,22,0.0,-999.0,98,-99.99,,,0.01,Acu-Link.com,2013-01-05 01:42:00,
2013-01-04 17:57:00,49.3,48.8,30.11,ESE,112,0.0,-999.0,98,-99.99,,,0.01,Acu-Link.com,2013-01-05 01:57:00,
2013-01-04 18:12:00,48.6,48.1,30.11,ESE,112,0.0,-999.0,98,-99.99,,,0.01,Acu-Link.com,2013-01-05 02:12:00,
2013-01-04 18:28:00,47.5,47.0,30.10,ENE,67,0.0,-999.0,98,-99.99,,,0.01,Acu-Link.com,2013-01-05 02:28:00,
2013-01-04 18:43:00,46.4,45.9,30.10,West,270,0.0,-999.0,98,-99.99,,,0.01,Acu-Link.com,2013-01-05 02:43:00,
2013-01-04 18:58:00,46.0,45.5,30.10,East,90,0.0,-999.0,98,-99.99,,,0.01,Acu-Link.com,2013-01-05 02:58:00,
2013-01-04 19:14:00,45.7,45.2,30.09,North,0,0.0,-999.0,98,-99.99,,,0.01,Acu-Link.com,2013-01-05 03:14:00,
2013-01-04 19:29:00,45.7,45.2,30.09,NW,315,0.0,-999.0,98,-99.99,,,0.01,Acu-Link.com,2013-01-05 03:29:00,
2013-01-04 19:44:00,45.7,45.2,30.10,NE,45,0.0,-999.0,98,-99.99,,,0.01,Acu-Link.com,2013-01-05 03:44:00,
2013-01-04 19:59:00,45.7,45.2,30.09,ESE,112,0.0,-999.0,98,-99.99,,,0.01,Acu-Link.com,2013-01-05 03:59:00,
2013-01-04 20:15:00,45.7,45.2,30.09,WNW,292,1.7,-999.0,98,-99.99,,,0.01,Acu-Link.com,2013-01-05 04:15:00,
2013-01-04 20:30:00,45.7,45.2,30.08,SSW,202,0.0,-999.0,98,-99.99,,,0.01,Acu-Link.com,2013-01-05 04:30:00,
2013-01-04 20:45:00,45.3,44.8,30.08,NW,315,0.0,-999.0,98,-99.99,,,0.01,Acu-Link.com,2013-01-05 04:45:00,
2013-01-04 21:01:00,45.0,44.5,30.08,ENE,67,0.0,-999.0,98,-99.99,,,0.01,Acu-Link.com,2013-01-05 05:01:00,
2013-01-04 21:16:00,44.6,44.1,30.07,NE,45,0.0,-999.0,98,-99.99,,,0.01,Acu-Link.com,2013-01-05 05:16:00,
2013-01-04 21:31:00,43.7,43.2,30.08,ESE,112,0.0,-999.0,98,-99.99,,,0.01,Acu-Link.com,2013-01-05 05:31:00,
2013-01-04 21:46:00,43.2,42.7,30.09,ENE,67,0.0,-999.0,98,-99.99,,,0.01,Acu-Link.com,2013-01-05 05:46:00,
2013-01-04 22:02:00,42.4,41.9,30.08,ESE,112,0.0,-999.0,98,-99.99,,,0.01,Acu-Link.com,2013-01-05 06:02:00,
2013-01-04 22:17:00,41.5,41.0,30.08,NE,45,0.0,-999.0,98,-99.99,,,0.01,Acu-Link.com,2013-01-05 06:17:00,
2013-01-04 22:32:00,41.0,40.5,30.09,East,90,0.0,-999.0,98,-99.99,,,0.01,Acu-Link.com,2013-01-05 06:32:00,
2013-01-04 22:47:00,40.8,40.3,30.09,ESE,112,0.0,-999.0,98,-99.99,,,0.01,Acu-Link.com,2013-01-05 06:47:00,
2013-01-04 23:03:00,40.8,40.3,30.08,SE,135,0.0,-999.0,98,-99.99,,,0.01,Acu-Link.com,2013-01-05 07:03:00,
2013-01-04 23:18:00,40.8,40.3,30.09,ENE,67,0.0,-999.0,98,-99.99,,,0.01,Acu-Link.com,2013-01-05 07:18:00,
2013-01-04 23:33:00,40.8,40.3,30.08,South,180,0.0,-999.0,98,-99.99,,,0.01,Acu-Link.com,2013-01-05 07:33:00,
2013-01-04 23:49:00,41.0,40.5,30.08,West,270,0.0,-999.0,98,-99.99,,,0.01,Acu-Link.com,2013-01-05 07:49:00,